Time;durP1;ratioP1;P1;durP2;ratioP2;P2;SDS_P1;SDS_P2;PMS_P1;PMS_P2;Temp;Humidity;BMP_temperature;BMP_pressure;BME280_temperature;BME280_humidity;BME280_pressure;Samples;Min_cycle;Max_cycle;Signal;HPM_P1;HPM_P2
2022/04/11 00:01:03;;;;;;;8.50;7.60;;;4.10;99.90;;;;;;5086087;28;20189;-62
2022/04/11 00:03:29;;;;;;;8.70;7.90;;;3.70;99.90;;;;;;5085989;28;20600;-62
2022/04/11 00:05:55;;;;;;;9.18;8.35;;;3.60;99.90;;;;;;5083500;28;20188;-62
2022/04/11 00:08:21;;;;;;;8.15;7.35;;;3.60;99.90;;;;;;5081601;28;20215;-62
2022/04/11 00:10:48;;;;;;;8.38;7.55;;;3.10;99.90;;;;;;5088745;28;20229;-62
2022/04/11 00:13:13;;;;;;;8.00;7.20;;;3.70;99.90;;;;;;5084763;28;20204;-62
2022/04/11 00:15:40;;;;;;;8.50;7.80;;;4.00;99.90;;;;;;5087183;28;20180;-62
2022/04/11 00:18:06;;;;;;;8.35;7.65;;;3.20;99.90;;;;;;5087509;28;20205;-62
2022/04/11 00:20:32;;;;;;;10.90;8.48;;;3.90;99.90;;;;;;5087481;28;20188;-62
2022/04/11 00:22:58;;;;;;;9.77;7.85;;;4.10;99.90;;;;;;5088400;28;20519;-62
2022/04/11 00:25:24;;;;;;;10.07;9.00;;;4.00;99.90;;;;;;5087500;28;20280;-62
2022/04/11 00:27:52;;;;;;;10.13;8.30;;;3.70;99.90;;;;;;5088145;28;20269;-62
2022/04/11 00:30:17;;;;;;;7.90;7.20;;;3.60;99.90;;;;;;5086670;28;20435;-62
2022/04/11 00:32:46;;;;;;;8.97;7.93;;;3.80;99.90;;;;;;5085893;28;20196;-62
2022/04/11 00:35:13;;;;;;;9.68;8.18;;;3.90;99.90;;;;;;5089022;28;20259;-62
2022/04/11 00:37:39;;;;;;;15.63;9.10;;;3.80;99.90;;;;;;5088059;28;20238;-62
2022/04/11 00:40:07;;;;;;;8.52;7.75;;;3.70;99.90;;;;;;5085334;28;20279;-62
2022/04/11 00:42:33;;;;;;;8.88;8.07;;;3.60;99.90;;;;;;5071833;28;20223;-62
2022/04/11 00:44:59;;;;;;;10.00;9.00;;;3.60;99.90;;;;;;5086225;28;20238;-63
2022/04/11 00:47:26;;;;;;;9.10;8.20;;;3.50;99.90;;;;;;5083649;28;20260;-62
2022/04/11 00:49:57;;;;;;;9.40;8.50;;;3.30;99.90;;;;;;5089749;28;20259;-62
2022/04/11 00:52:22;;;;;;;8.60;7.78;;;3.40;99.90;;;;;;5087219;28;20184;-62
2022/04/11 00:54:48;;;;;;;9.57;8.67;;;3.10;99.90;;;;;;5089461;28;20188;-62
2022/04/11 00:57:15;;;;;;;9.07;8.00;;;3.80;99.90;;;;;;5087902;28;20203;-62
2022/04/11 00:59:41;;;;;;;9.65;8.68;;;3.80;99.90;;;;;;5088800;28;20180;-62
2022/04/11 01:02:07;;;;;;;9.25;8.35;;;3.20;99.90;;;;;;5080116;28;20192;-62
2022/04/11 01:04:34;;;;;;;8.67;7.77;;;3.60;99.90;;;;;;5085031;28;20723;-63
2022/04/11 01:06:59;;;;;;;9.02;8.15;;;3.20;99.90;;;;;;5084969;28;20470;-62
2022/04/11 01:09:26;;;;;;;10.10;9.10;;;3.70;99.90;;;;;;5072059;28;20701;-63
2022/04/11 01:11:53;;;;;;;9.10;8.02;;;3.60;99.90;;;;;;5086620;28;20189;-63
2022/04/11 01:14:19;;;;;;;9.48;8.48;;;3.80;99.90;;;;;;5089491;28;20214;-62
2022/04/11 01:16:52;;;;;;;11.55;9.15;;;3.40;99.90;;;;;;5086742;28;20195;-63
2022/04/11 01:19:19;;;;;;;9.32;8.40;;;3.80;99.90;;;;;;5087022;28;20191;-63
2022/04/11 01:21:45;;;;;;;11.07;8.68;;;3.70;99.90;;;;;;5086189;28;20219;-63
2022/04/11 01:24:11;;;;;;;8.85;7.97;;;3.80;99.90;;;;;;5088295;28;20218;-63
2022/04/11 01:26:37;;;;;;;9.45;8.55;;;3.70;99.90;;;;;;5087398;28;20745;-62
2022/04/11 01:29:06;;;;;;;9.65;8.70;;;3.20;99.90;;;;;;5089743;28;20208;-63
2022/04/11 01:31:32;;;;;;;8.73;7.85;;;3.90;99.90;;;;;;5070716;28;20240;-63
2022/04/11 01:33:57;;;;;;;9.07;8.13;;;3.40;99.90;;;;;;5088880;28;20611;-62
2022/04/11 01:36:23;;;;;;;10.33;9.40;;;3.60;99.90;;;;;;5087566;28;20189;-62
2022/04/11 01:38:49;;;;;;;8.50;7.68;;;4.00;99.90;;;;;;5067531;28;20230;-63
2022/04/11 01:41:15;;;;;;;10.23;8.50;;;3.80;99.90;;;;;;5084564;28;20600;-62
2022/04/11 01:43:40;;;;;;;9.27;8.43;;;4.10;99.90;;;;;;5084858;28;21025;-63
2022/04/11 01:46:06;;;;;;;9.80;8.80;;;3.70;99.90;;;;;;5087578;28;20188;-62
2022/04/11 01:48:31;;;;;;;9.00;8.10;;;3.20;99.90;;;;;;5089065;28;20216;-62
2022/04/11 01:50:57;;;;;;;9.77;8.77;;;3.20;99.90;;;;;;5085730;28;20193;-62
2022/04/11 01:53:22;;;;;;;10.63;9.33;;;3.10;99.90;;;;;;5090868;28;20200;-63
2022/04/11 01:55:48;;;;;;;9.87;8.73;;;3.70;99.90;;;;;;5090211;28;20212;-62
2022/04/11 01:58:15;;;;;;;9.97;8.90;;;3.30;99.90;;;;;;5089347;28;20185;-63
2022/04/11 02:00:41;;;;;;;13.70;8.68;;;3.90;99.90;;;;;;5084774;28;20180;-63
2022/04/11 02:03:08;;;;;;;10.02;8.73;;;3.50;99.90;;;;;;5090388;28;20208;-62
2022/04/11 02:05:34;;;;;;;10.40;9.40;;;3.60;99.90;;;;;;5092328;28;21061;-63
2022/04/11 02:08:00;;;;;;;11.38;8.70;;;3.50;99.90;;;;;;5092176;28;20283;-63
2022/04/11 02:10:26;;;;;;;10.70;9.10;;;3.80;99.90;;;;;;5084955;28;20284;-63
2022/04/11 02:12:53;;;;;;;12.23;9.50;;;3.60;99.90;;;;;;5067732;28;20487;-63
2022/04/11 02:15:19;;;;;;;12.02;9.18;;;3.10;99.90;;;;;;5089358;28;20504;-63
2022/04/11 02:17:48;;;;;;;10.03;9.07;;;3.90;99.90;;;;;;5090701;28;20573;-62
2022/04/11 02:20:14;;;;;;;10.15;9.10;;;4.00;99.90;;;;;;5089983;28;20181;-62
2022/04/11 02:23:00;;;;;;;10.20;8.85;;;4.10;99.90;;;;;;5082453;28;20764;-63
2022/04/11 02:25:28;;;;;;;10.40;8.60;;;3.60;99.90;;;;;;5089700;28;20189;-63
2022/04/11 02:27:54;;;;;;;11.15;8.90;;;3.80;99.90;;;;;;5094519;28;20268;-63
2022/04/11 02:30:22;;;;;;;12.82;9.75;;;3.90;99.90;;;;;;5092453;28;20188;-63
2022/04/11 02:32:48;;;;;;;9.77;8.77;;;4.20;99.90;;;;;;5092530;28;20201;-63
2022/04/11 02:35:14;;;;;;;9.60;8.70;;;3.60;99.90;;;;;;5092798;28;20725;-62
2022/04/11 02:37:39;;;;;;;10.07;9.13;;;3.30;99.90;;;;;;5090548;28;20938;-62
2022/04/11 02:40:07;;;;;;;10.70;9.60;;;3.70;99.90;;;;;;5084891;28;20188;-63
2022/04/11 02:42:33;;;;;;;13.43;9.27;;;4.00;99.90;;;;;;5088410;28;20469;-63
2022/04/11 02:44:59;;;;;;;10.32;9.43;;;3.40;99.90;;;;;;5088982;28;20180;-63
2022/04/11 02:47:25;;;;;;;10.17;9.17;;;4.10;99.90;;;;;;5087654;28;20208;-63
2022/04/11 02:49:50;;;;;;;9.33;8.43;;;3.90;99.90;;;;;;5089105;28;20183;-62
2022/04/11 02:52:16;;;;;;;11.70;9.80;;;3.40;99.90;;;;;;5073365;28;20476;-62
2022/04/11 02:54:42;;;;;;;11.85;9.98;;;3.90;99.90;;;;;;5084089;28;20435;-63
2022/04/11 02:57:08;;;;;;;13.27;10.07;;;3.30;99.90;;;;;;5091335;28;20192;-63
2022/04/11 02:59:37;;;;;;;9.90;8.85;;;3.80;99.90;;;;;;5077680;28;20235;-62
2022/04/11 03:02:04;;;;;;;10.52;9.45;;;4.20;99.90;;;;;;5086724;28;20227;-63
2022/04/11 03:04:29;;;;;;;10.15;9.25;;;3.90;99.90;;;;;;5085104;28;20631;-63
2022/04/11 03:06:56;;;;;;;9.90;9.00;;;3.70;99.90;;;;;;5089625;28;20183;-62
2022/04/11 03:09:22;;;;;;;11.50;10.40;;;3.40;99.90;;;;;;5084358;28;20271;-63
2022/04/11 03:11:47;;;;;;;11.27;10.17;;;3.20;99.90;;;;;;5088270;28;20259;-63
2022/04/11 03:14:13;;;;;;;10.30;9.20;;;4.00;99.90;;;;;;5090783;28;20450;-62
2022/04/11 03:16:40;;;;;;;11.17;9.60;;;3.80;99.90;;;;;;5088295;28;20184;-63
2022/04/11 03:19:06;;;;;;;11.80;9.25;;;3.70;99.90;;;;;;5089911;28;20192;-63
2022/04/11 03:21:32;;;;;;;10.50;9.60;;;3.70;99.90;;;;;;5088789;28;20191;-63
2022/04/11 03:23:57;;;;;;;9.87;8.97;;;3.40;99.90;;;;;;5088260;28;20301;-62
2022/04/11 03:26:23;;;;;;;11.00;9.80;;;3.20;99.90;;;;;;5086067;28;20192;-62
2022/04/11 03:28:48;;;;;;;10.90;9.80;;;4.30;99.90;;;;;;5090861;28;20295;-62
2022/04/11 03:31:14;;;;;;;10.57;9.67;;;3.90;99.90;;;;;;5089527;28;20204;-63
2022/04/11 03:33:39;;;;;;;10.47;9.47;;;3.90;99.90;;;;;;5090529;28;20204;-62
2022/04/11 03:36:05;;;;;;;10.90;9.90;;;3.90;99.90;;;;;;5084713;28;20597;-62
2022/04/11 03:38:31;;;;;;;11.00;10.00;;;3.60;99.90;;;;;;5066208;28;20619;-62
2022/04/11 03:40:56;;;;;;;10.70;9.80;;;3.40;99.90;;;;;;5087962;28;20741;-63
2022/04/11 03:43:22;;;;;;;10.03;9.13;;;3.90;99.90;;;;;;5087628;28;20466;-62
2022/04/11 03:45:48;;;;;;;10.77;9.70;;;3.80;99.90;;;;;;5082014;28;20196;-62
2022/04/11 03:48:13;;;;;;;9.50;8.60;;;4.00;99.90;;;;;;5085147;28;20555;-63
2022/04/11 03:50:39;;;;;;;9.83;9.00;;;4.30;99.90;;;;;;5089437;28;20369;-62
2022/04/11 03:53:05;;;;;;;11.70;10.10;;;4.00;99.90;;;;;;5090727;28;20208;-62
2022/04/11 03:55:30;;;;;;;11.20;9.55;;;3.90;99.90;;;;;;5084120;28;20190;-63
2022/04/11 03:57:56;;;;;;;10.47;9.47;;;3.50;99.90;;;;;;5087455;28;20562;-62
2022/04/11 04:00:22;;;;;;;10.70;9.57;;;3.80;99.90;;;;;;5077206;28;20247;-62
2022/04/11 04:02:48;;;;;;;12.00;10.43;;;3.90;99.90;;;;;;5090174;28;20291;-63
2022/04/11 04:05:13;;;;;;;10.27;9.27;;;4.20;99.90;;;;;;5088053;28;20207;-63
2022/04/11 04:07:39;;;;;;;10.00;9.10;;;3.90;99.90;;;;;;5090587;28;20208;-62
2022/04/11 04:10:05;;;;;;;12.57;10.17;;;4.10;99.90;;;;;;5083660;28;20212;-62
2022/04/11 04:12:31;;;;;;;10.77;9.60;;;4.00;99.90;;;;;;5089674;28;20291;-61
2022/04/11 04:14:57;;;;;;;10.35;9.35;;;3.50;99.90;;;;;;5089172;28;20614;-61
2022/04/11 04:17:23;;;;;;;12.40;9.53;;;3.70;99.90;;;;;;5083728;28;20195;-61
2022/04/11 04:19:49;;;;;;;12.27;10.50;;;3.90;99.90;;;;;;5088637;28;20195;-62
2022/04/11 04:22:14;;;;;;;12.60;9.77;;;3.90;99.90;;;;;;5091417;28;20612;-63
2022/04/11 04:24:40;;;;;;;11.97;9.43;;;3.20;99.90;;;;;;5092600;28;20180;-62
2022/04/11 04:27:07;;;;;;;10.23;9.32;;;3.60;99.90;;;;;;5082324;28;20441;-62
2022/04/11 04:29:33;;;;;;;11.88;10.63;;;3.90;99.90;;;;;;5074778;28;20183;-62
2022/04/11 04:31:59;;;;;;;10.80;9.32;;;3.90;99.90;;;;;;5083309;28;20716;-61
2022/04/11 04:34:29;;;;;;;9.80;8.73;;;3.90;99.90;;;;;;5067683;28;20208;-62
2022/04/11 04:36:54;;;;;;;10.65;9.65;;;3.80;99.90;;;;;;5090024;28;20189;-62
2022/04/11 04:39:20;;;;;;;15.37;10.10;;;3.80;99.90;;;;;;5085645;28;20177;-62
2022/04/11 04:41:46;;;;;;;11.83;10.63;;;3.80;99.90;;;;;;5076232;28;20617;-61
2022/04/11 04:44:11;;;;;;;10.80;9.70;;;3.50;99.90;;;;;;5087768;28;20212;-62
2022/04/11 04:46:37;;;;;;;10.37;9.30;;;3.80;99.90;;;;;;5088935;28;20238;-62
2022/04/11 04:49:03;;;;;;;10.50;9.40;;;3.70;99.90;;;;;;5086791;28;20189;-64
2022/04/11 04:51:29;;;;;;;15.20;9.13;;;3.80;99.90;;;;;;5086003;28;20229;-62
2022/04/11 04:53:55;;;;;;;10.50;8.98;;;3.60;99.90;;;;;;5087745;28;20507;-61
2022/04/11 04:56:21;;;;;;;11.98;9.60;;;3.70;99.90;;;;;;5082010;28;20184;-64
2022/04/11 04:58:47;;;;;;;10.77;9.30;;;3.70;99.90;;;;;;5087213;28;20184;-62
2022/04/11 05:01:13;;;;;;;11.10;9.33;;;4.10;99.90;;;;;;5088427;28;20529;-63
2022/04/11 05:03:39;;;;;;;10.45;9.35;;;3.60;99.90;;;;;;5086254;28;20269;-63
2022/04/11 05:06:04;;;;;;;10.13;8.93;;;3.80;99.90;;;;;;5083334;28;20181;-63
2022/04/11 05:08:31;;;;;;;11.07;9.97;;;3.70;99.90;;;;;;5088515;28;20217;-63
2022/04/11 05:10:57;;;;;;;12.35;11.05;;;3.40;99.90;;;;;;5085632;28;20707;-63
2022/04/11 05:13:22;;;;;;;12.93;11.50;;;3.70;99.90;;;;;;5089777;28;20203;-63
2022/04/11 05:15:48;;;;;;;14.13;11.47;;;3.20;99.90;;;;;;5088691;28;20180;-63
2022/04/11 05:18:14;;;;;;;12.27;11.00;;;3.50;99.90;;;;;;5087248;28;20736;-63
2022/04/11 05:20:41;;;;;;;12.37;10.23;;;3.60;99.90;;;;;;5077266;28;20616;-64
2022/04/11 05:23:07;;;;;;;12.98;10.32;;;3.70;99.90;;;;;;5077624;28;20954;-63
2022/04/11 05:25:33;;;;;;;13.02;10.40;;;3.40;99.90;;;;;;5086085;28;20297;-64
2022/04/11 05:27:59;;;;;;;11.70;10.40;;;3.40;99.90;;;;;;5088583;28;20239;-63
2022/04/11 05:30:25;;;;;;;10.53;9.53;;;3.40;99.90;;;;;;5090351;28;20197;-63
2022/04/11 05:32:51;;;;;;;11.00;9.90;;;3.40;99.90;;;;;;5087885;28;20204;-64
2022/04/11 05:35:16;;;;;;;9.87;8.93;;;3.50;99.90;;;;;;5076617;28;20451;-64
2022/04/11 05:37:42;;;;;;;10.40;9.20;;;3.60;99.90;;;;;;5085678;28;20745;-63
2022/04/11 05:40:11;;;;;;;11.10;9.93;;;3.40;99.90;;;;;;5070447;28;20654;-63
2022/04/11 05:42:37;;;;;;;10.88;9.77;;;3.70;99.90;;;;;;5089757;28;20211;-62
2022/04/11 05:45:06;;;;;;;12.57;9.75;;;4.20;99.90;;;;;;5090960;28;20629;-62
2022/04/11 05:47:31;;;;;;;13.63;11.05;;;4.00;99.90;;;;;;5087823;28;20205;-62
2022/04/11 05:49:57;;;;;;;11.90;10.70;;;4.10;99.90;;;;;;5091686;28;20622;-64
2022/04/11 05:52:22;;;;;;;14.00;10.57;;;3.90;99.90;;;;;;5089258;28;20235;-63
2022/04/11 05:54:49;;;;;;;13.37;10.33;;;4.30;99.90;;;;;;5085565;28;20180;-64
2022/04/11 05:57:14;;;;;;;14.05;10.93;;;4.00;99.90;;;;;;5084223;28;20566;-66
2022/04/11 05:59:40;;;;;;;15.83;10.20;;;4.10;99.90;;;;;;5077306;28;20654;-68
2022/04/11 06:02:09;;;;;;;10.50;9.40;;;4.40;99.90;;;;;;5079886;28;20220;-65
2022/04/11 06:04:36;;;;;;;11.15;9.95;;;4.30;99.90;;;;;;5089567;28;20672;-70
2022/04/11 06:07:02;;;;;;;8.77;7.88;;;5.10;99.90;;;;;;5071086;28;20276;-70
2022/04/11 06:09:27;;;;;;;10.20;9.23;;;5.60;99.90;;;;;;5090864;28;20264;-73
2022/04/11 06:11:53;;;;;;;10.70;8.97;;;6.00;99.90;;;;;;5088707;28;20633;-59
2022/04/11 06:14:19;;;;;;;10.60;9.50;;;5.60;99.90;;;;;;5088415;28;20228;-67
2022/04/11 06:16:44;;;;;;;10.33;9.00;;;5.40;99.90;;;;;;5079060;28;20690;-66
2022/04/11 06:19:10;;;;;;;8.73;7.90;;;5.60;99.90;;;;;;5089068;28;20246;-67
2022/04/11 06:21:35;;;;;;;13.70;9.73;;;5.30;99.90;;;;;;5076120;28;20543;-64
2022/04/11 06:24:01;;;;;;;10.90;8.80;;;6.10;99.90;;;;;;5087851;28;20202;-64
2022/04/11 06:26:26;;;;;;;9.50;8.57;;;6.40;99.90;;;;;;5086886;28;20187;-65
2022/04/11 06:28:52;;;;;;;11.90;9.63;;;6.30;99.90;;;;;;5082191;28;20578;-63
2022/04/11 06:31:17;;;;;;;9.33;8.43;;;6.40;99.90;;;;;;5072252;28;20187;-63
2022/04/11 06:33:43;;;;;;;11.20;9.20;;;6.70;99.90;;;;;;5084699;28;20251;-63
2022/04/11 06:36:09;;;;;;;10.33;8.27;;;7.10;99.90;;;;;;5072820;28;20194;-64
2022/04/11 06:38:34;;;;;;;12.37;11.20;;;7.10;99.90;;;;;;5095444;28;20195;-65
2022/04/11 06:41:00;;;;;;;9.03;8.13;;;7.10;99.90;;;;;;5087917;28;20203;-65
2022/04/11 06:43:26;;;;;;;8.90;8.00;;;8.20;99.70;;;;;;5082381;28;20197;-74
2022/04/11 06:45:51;;;;;;;8.93;8.03;;;9.00;97.80;;;;;;5060145;28;20185;-70
2022/04/11 06:48:17;;;;;;;13.13;9.90;;;10.60;94.40;;;;;;5090341;28;20211;-69
2022/04/11 06:50:43;;;;;;;9.47;8.70;;;11.60;91.40;;;;;;5088489;28;20178;-71
2022/04/11 06:53:09;;;;;;;7.70;6.73;;;12.50;90.20;;;;;;5090686;28;20568;-67
2022/04/11 06:55:35;;;;;;;7.68;6.97;;;13.40;81.80;;;;;;5086304;28;20184;-70
2022/04/11 06:58:01;;;;;;;7.85;7.15;;;13.70;82.20;;;;;;5075236;28;20216;-69
2022/04/11 07:00:27;;;;;;;10.68;7.90;;;14.90;75.90;;;;;;5085379;28;20564;-67
2022/04/11 07:02:53;;;;;;;10.00;7.80;;;15.30;72.50;;;;;;5079859;28;20212;-67
2022/04/11 07:05:19;;;;;;;9.23;8.33;;;17.40;69.60;;;;;;5077326;28;20189;-66
2022/04/11 07:07:44;;;;;;;10.00;8.80;;;18.90;62.00;;;;;;5076659;28;20207;-68
2022/04/11 07:10:10;;;;;;;8.87;8.07;;;19.70;57.70;;;;;;5087565;28;20277;-67
2022/04/11 07:12:40;;;;;;;8.90;8.00;;;20.20;55.60;;;;;;5087249;28;20537;-66
2022/04/11 07:15:06;;;;;;;10.35;8.75;;;21.00;54.20;;;;;;5087047;28;20180;-67
2022/04/11 07:17:32;;;;;;;8.67;7.97;;;22.20;52.40;;;;;;5081626;28;20218;-72
2022/04/11 07:19:57;;;;;;;8.07;7.30;;;23.20;50.10;;;;;;5089143;28;20434;-71
2022/04/11 07:22:23;;;;;;;7.87;6.33;;;24.40;47.10;;;;;;5083212;28;20186;-73
2022/04/11 07:24:49;;;;;;;8.63;7.73;;;25.90;44.80;;;;;;5079519;28;20191;-68
2022/04/11 07:27:15;;;;;;;7.23;6.63;;;25.40;41.90;;;;;;5081312;28;20191;-67
2022/04/11 07:29:40;;;;;;;7.50;6.77;;;24.50;42.70;;;;;;5079056;28;20194;-65
2022/04/11 07:32:06;;;;;;;8.20;7.43;;;25.40;42.60;;;;;;5076512;28;20445;-66
2022/04/11 07:34:32;;;;;;;8.77;6.53;;;26.30;41.40;;;;;;5075654;28;20630;-66
2022/04/11 07:36:58;;;;;;;7.40;6.70;;;27.00;39.70;;;;;;5075936;28;20488;-73
2022/04/11 07:39:23;;;;;;;11.00;7.20;;;27.70;38.60;;;;;;5082983;28;20308;-74
2022/04/11 07:41:50;;;;;;;7.00;6.40;;;25.20;40.60;;;;;;5065356;28;20184;-67
2022/04/11 07:44:16;;;;;;;6.80;6.20;;;23.40;40.10;;;;;;5081919;28;20209;-66
2022/04/11 07:46:42;;;;;;;6.30;5.80;;;21.50;41.90;;;;;;5068625;28;20442;-67
2022/04/11 07:49:08;;;;;;;5.60;5.20;;;22.20;44.10;;;;;;5062155;28;20241;-68
2022/04/11 07:51:34;;;;;;;5.73;5.20;;;24.30;40.90;;;;;;5085115;28;20204;-66
2022/04/11 07:54:00;;;;;;;6.73;6.00;;;21.70;41.40;;;;;;5089070;28;20886;-64
2022/04/11 07:56:28;;;;;;;6.73;6.13;;;21.20;44.20;;;;;;5084007;28;20179;-66
2022/04/11 07:58:54;;;;;;;6.50;6.00;;;21.00;44.50;;;;;;5082419;28;20447;-66
2022/04/11 08:01:21;;;;;;;6.57;5.40;;;23.20;42.80;;;;;;5074860;28;20864;-66
2022/04/11 08:03:47;;;;;;;6.30;4.87;;;25.00;40.20;;;;;;5087777;28;20614;-65
2022/04/11 08:06:13;;;;;;;4.10;3.77;;;22.30;40.20;;;;;;5090612;28;20438;-66
2022/04/11 08:08:44;;;;;;;4.03;3.73;;;22.30;40.00;;;;;;5088407;28;20463;-65
2022/04/11 08:11:19;;;;;;;4.00;3.60;;;21.30;40.40;;;;;;5083642;28;20852;-70
2022/04/11 08:13:45;;;;;;;4.03;3.73;;;21.30;40.90;;;;;;5064948;28;20998;-68
2022/04/11 08:16:12;;;;;;;5.30;4.80;;;20.90;41.40;;;;;;5087094;28;20476;-67
2022/04/11 08:18:37;;;;;;;5.77;4.30;;;21.30;42.10;;;;;;5093128;28;20438;-67
2022/04/11 08:21:04;;;;;;;4.20;3.80;;;21.00;42.10;;;;;;5085285;28;20439;-65
2022/04/11 08:23:30;;;;;;;5.83;5.30;;;22.10;40.60;;;;;;5083278;28;20201;-66
2022/04/11 08:25:56;;;;;;;4.30;4.00;;;22.90;40.50;;;;;;5075524;28;20442;-66
2022/04/11 08:28:22;;;;;;;4.57;4.00;;;23.40;39.10;;;;;;5083083;28;20834;-66
2022/04/11 08:30:48;;;;;;;4.03;3.77;;;23.20;39.70;;;;;;5081108;28;20440;-65
2022/04/11 08:33:14;;;;;;;4.63;4.33;;;22.90;38.70;;;;;;5088087;28;20874;-67
2022/04/11 08:35:40;;;;;;;5.80;3.83;;;22.80;38.80;;;;;;5078999;28;20449;-69
2022/04/11 08:38:06;;;;;;;4.80;4.40;;;23.30;38.30;;;;;;5086059;28;20940;-71
2022/04/11 08:40:31;;;;;;;3.90;3.60;;;23.70;38.20;;;;;;5080255;28;20184;-67
2022/04/11 08:42:59;;;;;;;4.00;3.70;;;24.00;37.60;;;;;;5080399;28;20251;-66
2022/04/11 08:45:27;;;;;;;3.93;3.63;;;22.50;38.10;;;;;;5082035;28;20536;-70
2022/04/11 08:47:59;;;;;;;3.93;3.60;;;22.70;38.50;;;;;;5086180;28;20880;-67
2022/04/11 08:50:26;;;;;;;4.20;3.90;;;23.70;37.10;;;;;;5080939;28;20951;-68
2022/04/11 08:52:53;;;;;;;4.60;4.30;;;22.90;37.60;;;;;;5088097;28;20451;-67
2022/04/11 08:55:20;;;;;;;3.87;3.57;;;23.60;37.80;;;;;;5087328;28;20938;-67
2022/04/11 08:57:45;;;;;;;4.20;3.80;;;25.20;36.60;;;;;;5086156;28;20439;-67
2022/04/11 09:00:22;;;;;;;4.80;4.17;;;25.80;35.60;;;;;;5079546;28;20803;-66
2022/04/11 09:02:48;;;;;;;4.17;3.77;;;24.30;35.50;;;;;;5091778;28;20204;-69
2022/04/11 09:05:20;;;;;;;4.40;4.10;;;24.20;36.10;;;;;;5081875;28;20537;-69
2022/04/11 09:07:56;;;;;;;3.73;3.50;;;24.60;35.40;;;;;;5090365;28;20485;-67
2022/04/11 09:10:24;;;;;;;3.80;3.50;;;24.60;35.90;;;;;;5090809;28;20844;-65
2022/04/11 09:12:58;;;;;;;3.73;3.33;;;24.20;36.10;;;;;;5091150;28;20451;-64
2022/04/11 09:15:25;;;;;;;3.53;3.00;;;24.50;35.20;;;;;;5093481;28;20526;-65
2022/04/11 09:17:52;;;;;;;4.40;4.00;;;24.90;35.40;;;;;;5097926;28;20515;-66
2022/04/11 09:20:21;;;;;;;3.90;3.60;;;24.70;35.60;;;;;;5074464;28;20579;-69
2022/04/11 09:22:48;;;;;;;4.33;3.93;;;23.80;36.30;;;;;;5095269;28;20915;-67
2022/04/11 09:25:21;;;;;;;3.53;3.23;;;22.10;37.60;;;;;;5091806;28;20443;-62
2022/04/11 09:27:48;;;;;;;3.20;3.00;;;21.90;38.40;;;;;;5093967;28;20466;-63
2022/04/11 09:30:19;;;;;;;5.60;3.60;;;22.00;36.30;;;;;;5081796;28;20443;-62
2022/04/11 09:32:57;;;;;;;2.80;2.60;;;21.70;36.90;;;;;;5083975;28;21277;-66
2022/04/11 09:35:24;;;;;;;3.57;2.43;;;22.00;35.20;;;;;;5084708;28;21002;-64
2022/04/11 09:38:13;;;;;;;2.77;2.57;;;21.90;35.60;;;;;;5090965;28;20482;-67
2022/04/11 09:40:50;;;;;;;3.17;2.95;;;20.70;36.10;;;;;;5068142;28;20890;-66
2022/04/11 09:43:37;;;;;;;3.40;3.10;;;20.60;37.10;;;;;;5088553;28;20243;-68
2022/04/11 09:46:04;;;;;;;3.03;2.80;;;20.80;37.70;;;;;;5085530;28;20446;-69
2022/04/11 09:48:32;;;;;;;2.83;2.63;;;22.10;35.80;;;;;;5090487;28;20462;-70
2022/04/11 09:50:59;;;;;;;3.20;2.90;;;22.60;37.60;;;;;;5070998;28;20443;-70
2022/04/11 09:53:30;;;;;;;2.90;2.70;;;22.10;35.90;;;;;;5085802;28;20519;-68
2022/04/11 09:55:56;;;;;;;3.00;2.70;;;22.50;33.80;;;;;;5085009;28;20462;-70
2022/04/11 09:58:23;;;;;;;2.97;2.70;;;22.10;35.10;;;;;;5084014;28;20853;-70
2022/04/11 10:00:51;;;;;;;2.85;2.65;;;21.40;36.10;;;;;;5082675;28;20216;-75
2022/04/11 10:03:19;;;;;;;4.18;3.00;;;21.40;36.10;;;;;;5093005;28;20782;-71
2022/04/11 10:05:46;;;;;;;2.80;2.60;;;20.40;37.10;;;;;;5090012;28;20234;-68
2022/04/11 10:08:15;;;;;;;4.55;2.58;;;20.00;37.60;;;;;;5078085;28;20269;-68
2022/04/11 10:10:41;;;;;;;4.15;2.63;;;19.80;37.30;;;;;;5081626;28;20177;-62
2022/04/11 10:13:10;;;;;;;2.67;2.45;;;20.40;38.70;;;;;;5068508;28;20292;-60
2022/04/11 10:15:37;;;;;;;3.20;2.90;;;19.60;38.30;;;;;;5081030;28;20180;-64
2022/04/11 10:18:04;;;;;;;3.50;3.20;;;19.50;37.70;;;;;;5091732;28;20172;-65
2022/04/11 10:20:34;;;;;;;2.92;2.72;;;20.00;38.40;;;;;;5093900;28;20187;-62
2022/04/11 10:23:32;;;;;;;2.95;2.75;;;19.70;38.90;;;;;;5082915;28;20227;-60
2022/04/11 10:25:59;;;;;;;2.53;2.33;;;19.80;38.70;;;;;;5080780;28;20279;-63
2022/04/11 10:28:27;;;;;;;2.85;2.65;;;19.90;39.10;;;;;;5081116;28;20376;-64
2022/04/11 10:31:19;;;;;;;3.15;2.80;;;20.30;40.40;;;;;;5083760;28;20173;-65
2022/04/11 10:33:50;;;;;;;2.83;2.63;;;20.10;39.00;;;;;;5071979;28;20692;-63
2022/04/11 10:36:27;;;;;;;3.35;3.15;;;20.70;38.60;;;;;;5077531;28;20706;-64
2022/04/11 10:39:14;;;;;;;2.90;2.70;;;19.50;39.00;;;;;;5089948;28;20630;-66
2022/04/11 10:41:58;;;;;;;2.83;2.63;;;19.60;40.60;;;;;;5086537;28;20184;-63
2022/04/11 10:44:42;;;;;;;3.40;3.10;;;19.50;40.70;;;;;;5087007;28;20346;-64
2022/04/11 10:47:08;;;;;;;2.80;2.60;;;19.90;39.80;;;;;;5072636;28;20193;-64
2022/04/11 10:49:48;;;;;;;2.87;2.67;;;20.20;39.20;;;;;;5089032;28;20227;-64
2022/04/11 10:52:41;;;;;;;2.58;2.38;;;20.30;38.50;;;;;;5086379;28;20180;-67
2022/04/11 10:55:32;;;;;;;2.90;2.70;;;20.60;38.40;;;;;;5083606;28;20606;-65
2022/04/11 10:58:01;;;;;;;2.92;2.72;;;20.30;38.00;;;;;;5074787;28;20207;-65
2022/04/11 11:00:34;;;;;;;3.53;3.00;;;20.50;38.60;;;;;;5089236;28;20181;-61
2022/04/11 11:03:04;;;;;;;2.88;2.60;;;19.50;39.20;;;;;;5093329;28;20702;-62
2022/04/11 11:05:43;;;;;;;3.40;2.97;;;20.10;38.80;;;;;;5089622;28;20701;-61
2022/04/11 11:08:12;;;;;;;2.80;2.60;;;19.60;38.80;;;;;;5074174;28;20307;-62
2022/04/11 11:10:55;;;;;;;2.88;2.63;;;20.40;38.60;;;;;;5089261;28;20252;-61
2022/04/11 11:13:36;;;;;;;3.38;2.72;;;19.50;38.60;;;;;;5093550;28;20204;-62
2022/04/11 11:16:07;;;;;;;2.88;2.67;;;20.10;39.30;;;;;;5082705;28;20273;-62
2022/04/11 11:18:48;;;;;;;2.85;2.65;;;20.20;38.70;;;;;;5088611;28;20190;-62
2022/04/11 11:21:22;;;;;;;3.10;2.65;;;20.20;38.00;;;;;;5086634;28;20188;-61
2022/04/11 11:26:48;;;;;;;3.17;2.92;;;20.40;37.50;;;;;;5090383;28;20188;-62
2022/04/11 11:29:19;;;;;;;3.60;3.30;;;20.50;38.00;;;;;;5084732;28;20212;-60
2022/04/11 11:31:47;;;;;;;3.40;3.10;;;19.90;38.50;;;;;;5082309;28;20302;-65
2022/04/11 11:34:15;;;;;;;3.05;2.85;;;20.30;38.50;;;;;;5072784;28;20211;-64
2022/04/11 11:36:41;;;;;;;2.47;2.28;;;20.50;39.80;;;;;;5085797;28;20188;-69
2022/04/11 11:39:19;;;;;;;2.78;2.58;;;20.50;38.30;;;;;;5086824;28;20192;-66
2022/04/11 11:41:46;;;;;;;4.65;3.03;;;20.60;37.20;;;;;;5074070;28;20188;-63
2022/04/11 11:44:13;;;;;;;2.40;2.20;;;20.30;37.00;;;;;;5086128;28;20204;-63
2022/04/11 11:46:53;;;;;;;2.70;2.50;;;20.50;37.50;;;;;;5069033;28;20211;-62
2022/04/11 11:49:21;;;;;;;3.45;2.25;;;20.50;37.20;;;;;;5089369;28;20208;-61
2022/04/11 11:51:47;;;;;;;3.90;2.75;;;20.40;37.40;;;;;;5085171;28;20177;-60
2022/04/11 11:54:14;;;;;;;3.25;3.05;;;20.30;37.80;;;;;;5078170;28;20280;-61
2022/04/11 11:56:45;;;;;;;4.05;2.80;;;20.50;36.80;;;;;;5075256;28;20185;-64
2022/04/11 11:59:12;;;;;;;4.03;2.60;;;20.30;36.30;;;;;;5084760;28;20680;-62
2022/04/11 12:04:18;;;;;;;3.08;2.70;;;20.00;37.00;;;;;;5079284;28;20250;-65
2022/04/11 12:04:33;;;;;;;2.80;2.60;;;19.50;37.50;;;;;;5087961;28;20302;-71
2022/04/11 12:06:58;;;;;;;2.70;2.50;;;19.10;38.30;;;;;;5084153;28;20184;-67
2022/04/11 12:09:36;;;;;;;3.43;2.87;;;19.00;38.80;;;;;;5086936;28;20230;-70
2022/04/11 12:12:06;;;;;;;3.28;2.45;;;19.10;39.20;;;;;;5088217;28;20608;-68
2022/04/11 12:15:01;;;;;;;3.38;2.80;;;19.00;39.00;;;;;;5083468;28;20207;-69
2022/04/11 12:17:38;;;;;;;2.90;2.70;;;18.80;39.20;;;;;;5061461;28;20562;-69
2022/04/11 12:20:12;;;;;;;2.67;2.47;;;18.40;39.30;;;;;;5088460;28;20214;-74
2022/04/11 12:22:39;;;;;;;3.00;2.80;;;18.30;38.70;;;;;;5072045;28;20208;-76
2022/04/11 12:25:22;;;;;;;4.05;3.20;;;18.10;39.50;;;;;;5069676;28;20536;-74
2022/04/11 12:27:49;;;;;;;3.05;2.72;;;18.20;39.70;;;;;;5076203;28;21076;-68
2022/04/11 12:30:16;;;;;;;3.58;3.28;;;18.30;39.30;;;;;;5093201;28;20752;-68
2022/04/11 12:32:42;;;;;;;3.00;2.80;;;18.30;39.30;;;;;;5088178;28;20214;-69
2022/04/11 12:35:18;;;;;;;3.17;2.87;;;17.90;39.40;;;;;;5080857;28;20184;-66
2022/04/11 12:37:50;;;;;;;2.83;2.63;;;18.00;39.60;;;;;;5091579;28;20433;-67
2022/04/11 12:40:19;;;;;;;2.97;2.78;;;17.70;40.10;;;;;;5086302;28;20238;-68
2022/04/11 12:42:45;;;;;;;3.00;2.63;;;17.70;40.50;;;;;;5086030;28;20229;-68
2022/04/11 12:45:15;;;;;;;2.80;2.60;;;17.80;41.00;;;;;;5075823;28;20235;-63
2022/04/11 12:48:17;;;;;;;3.15;2.67;;;17.90;40.90;;;;;;5084119;28;20205;-73
2022/04/11 12:50:43;;;;;;;2.78;2.58;;;17.90;40.20;;;;;;5082106;28;20181;-73
2022/04/11 12:53:08;;;;;;;3.00;2.80;;;17.80;39.80;;;;;;5084973;28;20197;-72
2022/04/11 12:55:34;;;;;;;2.87;2.67;;;17.40;40.10;;;;;;5085556;28;20194;-74